createdAt,value
2022-12-05T00:01:24.859Z,95.76
2022-12-05T00:03:54.580Z,95.23
2022-12-05T00:06:21.491Z,95.39
2022-12-05T00:08:49.077Z,95.32
2022-12-05T00:11:21.968Z,94.68
2022-12-05T00:13:49.863Z,95.19
2022-12-05T00:16:20.120Z,94.74
2022-12-05T00:18:47.279Z,94.56
2022-12-05T00:21:17.282Z,94.53
2022-12-05T00:23:43.948Z,94.17
2022-12-05T00:26:11.156Z,94.21
2022-12-05T00:28:38.490Z,94.00
2022-12-05T00:31:10.875Z,93.45
2022-12-05T00:33:38.106Z,93.24
2022-12-05T00:36:08.468Z,93.42
2022-12-05T00:38:35.097Z,93.12
2022-12-05T00:41:13.732Z,93.14
2022-12-05T00:43:40.620Z,93.03
2022-12-05T00:46:10.411Z,93.45
2022-12-05T00:48:37.574Z,93.29
2022-12-05T00:51:07.517Z,93.16
2022-12-05T00:53:35.226Z,92.94
2022-12-05T00:56:10.863Z,92.90
2022-12-05T00:58:38.398Z,93.05
2022-12-05T01:01:14.496Z,92.99
2022-12-05T01:03:42.523Z,92.69
2022-12-05T01:06:10.701Z,92.86
2022-12-05T01:08:37.590Z,92.60
2022-12-05T01:11:05.949Z,92.94
2022-12-05T01:13:33.562Z,93.08
2022-12-05T01:16:00.166Z,93.25
2022-12-05T01:18:27.272Z,93.51
2022-12-05T01:20:54.504Z,93.59
2022-12-05T01:23:21.672Z,93.87
2022-12-05T01:25:51.366Z,94.39
2022-12-05T01:28:18.481Z,94.35
2022-12-05T01:30:48.003Z,94.37
2022-12-05T01:33:14.960Z,94.88
2022-12-05T01:35:42.537Z,94.74
2022-12-05T01:38:12.090Z,94.95
2022-12-05T01:40:39.532Z,94.89
2022-12-05T01:43:15.057Z,94.83
2022-12-05T01:45:44.947Z,95.18
2022-12-05T01:48:25.934Z,95.21
2022-12-05T01:50:52.756Z,95.02
2022-12-05T01:53:19.818Z,95.45
2022-12-05T01:55:48.586Z,95.78
2022-12-05T01:58:16.256Z,94.91
2022-12-05T02:00:43.856Z,95.14
2022-12-05T02:03:17.286Z,95.33
2022-12-05T02:05:46.427Z,95.99
2022-12-05T02:08:13.023Z,95.32
2022-12-05T02:10:52.780Z,95.54
2022-12-05T02:13:43.797Z,95.54
2022-12-05T02:16:35.147Z,95.33
2022-12-05T02:19:15.562Z,95.50
2022-12-05T02:22:11.006Z,95.60
2022-12-05T02:25:05.331Z,95.80
2022-12-05T02:27:38.015Z,95.64
2022-12-05T02:30:07.694Z,96.13
2022-12-05T02:33:02.248Z,96.17
2022-12-05T02:35:50.528Z,95.82
2022-12-05T02:38:51.342Z,95.89
2022-12-05T02:41:53.800Z,96.07
2022-12-05T02:44:36.472Z,96.23
2022-12-05T02:47:05.606Z,96.30
2022-12-05T02:49:35.539Z,95.97
2022-12-05T02:52:05.918Z,95.77
2022-12-05T02:54:37.392Z,96.00
2022-12-05T02:57:05.226Z,95.63
2022-12-05T02:59:31.807Z,96.20
2022-12-05T03:01:58.354Z,96.09
2022-12-05T03:04:26.500Z,95.82
2022-12-05T03:07:00.728Z,95.69
2022-12-05T03:09:37.457Z,96.43
2022-12-05T03:12:13.129Z,96.53
2022-12-05T03:14:44.705Z,96.34
2022-12-05T03:17:18.573Z,95.92
2022-12-05T03:20:09.386Z,96.25
2022-12-05T03:22:44.260Z,96.03
2022-12-05T03:25:11.679Z,96.00
2022-12-05T03:27:54.634Z,96.36
2022-12-05T03:30:22.936Z,96.48
2022-12-05T03:33:01.936Z,96.06
2022-12-05T03:35:47.398Z,96.65
2022-12-05T03:38:21.939Z,96.40
2022-12-05T03:41:08.964Z,96.69
2022-12-05T03:43:44.160Z,96.38
2022-12-05T03:46:24.975Z,96.54
2022-12-05T03:49:13.030Z,96.67
2022-12-05T03:51:47.387Z,96.62
2022-12-05T03:54:37.693Z,96.35
2022-12-05T03:57:36.321Z,96.68
2022-12-05T04:00:10.031Z,96.23
2022-12-05T04:02:58.664Z,96.75
2022-12-05T04:05:31.024Z,96.65
2022-12-05T04:08:14.671Z,97.46
2022-12-05T04:10:48.697Z,96.66
2022-12-05T04:13:47.834Z,96.91
2022-12-05T04:16:37.214Z,96.70
2022-12-05T04:19:13.581Z,96.58
2022-12-05T04:21:45.599Z,96.48
2022-12-05T04:24:35.115Z,96.84
2022-12-05T04:27:13.432Z,96.72
2022-12-05T04:29:57.394Z,96.94
2022-12-05T04:32:26.453Z,96.50
2022-12-05T04:35:06.630Z,96.57
2022-12-05T04:37:37.389Z,97.00
2022-12-05T04:40:17.874Z,96.89
2022-12-05T04:42:47.515Z,96.50
2022-12-05T04:45:18.233Z,96.63
2022-12-05T04:47:51.625Z,96.60
2022-12-05T04:50:19.787Z,96.83
2022-12-05T04:52:49.940Z,96.47
2022-12-05T04:55:20.674Z,96.23
2022-12-05T04:57:55.993Z,96.97
2022-12-05T05:00:22.619Z,96.54
2022-12-05T05:03:19.436Z,97.00
2022-12-05T05:05:49.851Z,96.60
2022-12-05T05:08:22.044Z,96.64
2022-12-05T05:10:57.231Z,96.58
2022-12-05T05:13:24.446Z,96.53
2022-12-05T05:15:51.005Z,96.56
2022-12-05T05:18:17.570Z,96.72
2022-12-05T05:20:44.080Z,96.46
2022-12-05T05:23:10.641Z,96.68
2022-12-05T05:25:37.262Z,96.36
2022-12-05T05:28:03.944Z,96.52
2022-12-05T05:30:30.462Z,96.42
2022-12-05T05:32:59.996Z,96.21
2022-12-05T05:35:26.597Z,96.36
2022-12-05T05:37:53.170Z,96.46
2022-12-05T05:40:19.891Z,96.06
2022-12-05T05:42:48.560Z,96.07
2022-12-05T05:45:15.920Z,95.97
2022-12-05T05:47:43.023Z,95.82
2022-12-05T05:50:11.037Z,95.63
2022-12-05T05:52:39.602Z,95.85
2022-12-05T05:55:07.705Z,95.56
2022-12-05T05:57:35.080Z,95.44
2022-12-05T06:00:03.130Z,95.46
2022-12-05T06:02:34.434Z,95.33
2022-12-05T06:05:01.775Z,95.03
2022-12-05T06:07:28.452Z,95.26
2022-12-05T06:09:55.130Z,95.18
2022-12-05T06:12:22.076Z,94.96
2022-12-05T06:14:49.897Z,95.14
2022-12-05T06:17:16.795Z,95.34
2022-12-05T06:19:43.361Z,95.19
2022-12-05T06:22:09.863Z,95.01
2022-12-05T06:24:36.451Z,95.26
2022-12-05T06:27:03.077Z,95.36
2022-12-05T06:29:33.661Z,95.16
2022-12-05T06:32:01.470Z,95.15
2022-12-05T06:34:28.404Z,94.79
2022-12-05T06:36:55.781Z,95.59
2022-12-05T06:39:22.715Z,95.27
2022-12-05T06:41:49.503Z,94.87
2022-12-05T06:44:16.176Z,95.19
2022-12-05T06:46:42.739Z,95.37
2022-12-05T06:49:10.696Z,94.94
2022-12-05T06:51:37.380Z,95.38
2022-12-05T06:54:04.024Z,95.42
2022-12-05T06:56:30.773Z,95.14
2022-12-05T06:58:57.316Z,95.48
2022-12-05T07:01:42.197Z,95.51
2022-12-05T07:04:25.816Z,94.89
2022-12-05T07:06:53.908Z,94.72
2022-12-05T07:09:22.989Z,95.28
2022-12-05T07:11:51.050Z,95.36
2022-12-05T07:14:46.261Z,95.54
2022-12-05T07:17:04.909Z,95.14
2022-12-05T07:19:31.642Z,95.76
2022-12-05T07:21:58.227Z,95.39
2022-12-05T07:24:24.798Z,95.30
2022-12-05T07:26:51.444Z,95.31
2022-12-05T07:29:17.998Z,95.22
2022-12-05T07:31:44.705Z,95.20
2022-12-05T07:34:11.652Z,95.36
2022-12-05T07:36:38.198Z,95.46
2022-12-05T07:39:04.817Z,95.09
2022-12-05T07:41:33.206Z,94.79
2022-12-05T07:44:00.835Z,94.89
2022-12-05T07:46:28.841Z,94.50
2022-12-05T07:48:55.521Z,94.30
2022-12-05T07:51:22.444Z,94.43
2022-12-05T07:53:49.848Z,93.89
2022-12-05T07:56:18.250Z,94.11
2022-12-05T07:58:46.779Z,93.57
2022-12-05T08:01:18.052Z,93.24
2022-12-05T08:03:45.406Z,92.73
2022-12-05T08:06:15.160Z,92.63
2022-12-05T08:08:41.759Z,92.38
2022-12-05T08:11:20.398Z,92.31
2022-12-05T08:13:47.073Z,91.84
2022-12-05T08:16:25.717Z,91.69
2022-12-05T08:19:04.376Z,92.36
2022-12-05T08:21:31.388Z,92.30
2022-12-05T08:23:58.453Z,92.10
2022-12-05T08:26:27.677Z,92.47
2022-12-05T08:29:06.405Z,92.29
2022-12-05T08:31:35.210Z,92.95
2022-12-05T08:34:01.812Z,92.42
2022-12-05T08:36:29.900Z,92.64
2022-12-05T08:38:58.327Z,93.20
2022-12-05T08:41:28.686Z,93.12
2022-12-05T08:43:57.107Z,93.50
2022-12-05T08:46:24.045Z,93.16
2022-12-05T08:48:51.563Z,93.41
2022-12-05T08:51:18.191Z,93.51
2022-12-05T08:53:46.167Z,93.61
2022-12-05T08:56:13.271Z,93.04
2022-12-05T08:58:40.971Z,93.91
2022-12-05T09:01:10.959Z,93.81
2022-12-05T09:03:41.074Z,92.77
2022-12-05T09:06:20.034Z,93.43
2022-12-05T09:08:47.778Z,93.44
2022-12-05T09:11:15.963Z,92.57
2022-12-05T09:13:43.406Z,91.95
2022-12-05T09:16:12.924Z,91.73
2022-12-05T09:18:39.863Z,91.50
2022-12-05T09:21:14.762Z,90.88
2022-12-05T09:23:41.672Z,91.11
2022-12-05T09:26:12.162Z,90.76
2022-12-05T09:28:39.371Z,90.92
2022-12-05T09:31:09.358Z,91.19
2022-12-05T09:33:37.948Z,91.63
2022-12-05T09:36:12.351Z,91.33
2022-12-05T09:38:39.264Z,91.67
2022-12-05T09:41:48.368Z,91.67
2022-12-05T09:44:51.840Z,91.91
2022-12-05T09:47:43.045Z,91.98
2022-12-05T09:50:22.035Z,92.11
2022-12-05T09:58:44.892Z,92.16
2022-12-05T10:01:11.414Z,92.37
2022-12-05T10:03:43.802Z,92.92
2022-12-05T10:06:24.208Z,92.54
2022-12-05T10:09:10.126Z,92.17
2022-12-05T10:11:44.742Z,92.38
2022-12-05T10:14:39.023Z,91.89
2022-12-05T10:17:10.877Z,92.07
2022-12-05T10:19:44.888Z,92.20
2022-12-05T10:22:22.652Z,92.11
2022-12-05T10:24:54.223Z,92.42
2022-12-05T10:27:35.376Z,92.29
2022-12-05T10:30:04.815Z,92.58
2022-12-05T10:32:40.101Z,92.30
2022-12-05T10:35:25.312Z,91.81
2022-12-05T10:37:58.296Z,92.45
2022-12-05T10:40:44.562Z,91.88
2022-12-05T10:43:14.667Z,91.91
2022-12-05T10:45:44.020Z,91.54
2022-12-05T10:48:16.334Z,91.63
2022-12-05T10:50:44.684Z,91.03
2022-12-05T10:53:31.913Z,91.11
2022-12-05T10:58:56.859Z,90.80
2022-12-05T11:01:26.260Z,90.88
2022-12-05T11:03:59.031Z,90.86
2022-12-05T11:06:30.881Z,90.86
2022-12-05T11:09:15.593Z,90.66
2022-12-05T11:11:42.219Z,91.18
2022-12-05T11:17:25.640Z,90.74
2022-12-05T11:19:52.266Z,90.34
2022-12-05T11:22:18.888Z,89.86
2022-12-05T11:24:45.543Z,89.53
2022-12-05T11:27:17.844Z,89.36
2022-12-05T11:29:55.987Z,90.16
2022-12-05T11:32:25.921Z,89.66
2022-12-05T11:34:52.447Z,88.72
2022-12-05T11:37:25.641Z,89.38
2022-12-05T11:39:52.570Z,89.57
2022-12-05T11:42:54.092Z,89.85
2022-12-05T11:45:48.216Z,89.27
2022-12-05T11:48:49.481Z,90.10
2022-12-05T11:51:21.775Z,89.93
2022-12-05T11:54:30.447Z,89.68
2022-12-05T11:57:14.928Z,89.26
2022-12-05T12:00:01.388Z,90.08
2022-12-05T12:02:27.947Z,89.67
2022-12-05T12:05:03.099Z,89.12
2022-12-05T12:07:35.496Z,89.76
2022-12-05T12:10:09.942Z,89.43
2022-12-05T12:12:55.426Z,89.14
2022-12-05T12:15:43.389Z,89.82
2022-12-05T12:18:26.120Z,89.69
2022-12-05T12:21:36.942Z,90.13
2022-12-05T12:24:27.506Z,89.95
2022-12-05T12:27:12.119Z,90.00
2022-12-05T12:29:51.037Z,90.44
2022-12-05T12:32:32.901Z,90.80
2022-12-05T12:35:43.263Z,90.37
2022-12-05T12:38:25.055Z,90.57
2022-12-05T12:40:54.971Z,91.45
2022-12-05T12:43:55.796Z,92.07
2022-12-05T12:46:41.694Z,92.04
2022-12-05T12:49:23.176Z,92.13
2022-12-05T12:51:57.927Z,91.54
2022-12-05T12:55:02.934Z,91.47
2022-12-05T12:57:34.738Z,91.21
2022-12-05T13:00:16.582Z,91.19
2022-12-05T13:02:57.616Z,91.27
2022-12-05T13:05:46.723Z,91.34
2022-12-05T13:08:29.799Z,91.66
2022-12-05T13:10:59.747Z,92.28
2022-12-05T13:13:33.977Z,92.47
2022-12-05T13:16:03.861Z,92.40
2022-12-05T13:18:30.545Z,92.05
2022-12-05T13:20:59.978Z,92.40
2022-12-05T13:23:34.045Z,92.05
2022-12-05T13:26:07.865Z,92.45
2022-12-05T13:28:41.990Z,92.00
2022-12-05T13:31:10.959Z,91.80
2022-12-05T13:33:46.721Z,92.70
2022-12-05T13:36:42.144Z,92.49
2022-12-05T13:39:33.218Z,92.02
2022-12-05T13:42:16.155Z,92.39
2022-12-05T13:44:52.623Z,92.15
2022-12-05T13:47:37.929Z,92.06
2022-12-05T13:50:14.150Z,92.19
2022-12-05T13:52:52.331Z,92.17
2022-12-05T13:55:35.958Z,92.76
2022-12-05T13:58:38.236Z,92.56
2022-12-05T14:01:53.797Z,92.94
2022-12-05T14:04:48.171Z,92.77
2022-12-05T14:07:39.814Z,92.79
2022-12-05T14:10:07.858Z,93.22
2022-12-05T14:12:48.958Z,93.50
2022-12-05T14:15:28.430Z,93.24
2022-12-05T14:18:04.225Z,93.32
2022-12-05T14:20:55.300Z,94.13
2022-12-05T14:23:27.711Z,93.73
2022-12-05T14:26:08.750Z,93.26
2022-12-05T14:28:53.355Z,93.49
2022-12-05T14:31:34.442Z,93.20
2022-12-05T14:34:05.628Z,93.33
2022-12-05T14:36:33.844Z,93.33
2022-12-05T14:39:00.544Z,93.16
2022-12-05T14:41:35.437Z,93.82
2022-12-05T14:44:08.379Z,93.60
2022-12-05T14:46:35.695Z,93.42
2022-12-05T14:49:44.072Z,93.88
2022-12-05T14:52:21.815Z,94.56
2022-12-05T14:54:49.460Z,94.27
2022-12-05T14:57:17.320Z,94.18
2022-12-05T14:59:51.526Z,93.99
2022-12-05T15:02:29.946Z,94.81
2022-12-05T15:05:05.772Z,94.45
2022-12-05T15:07:36.705Z,94.72
2022-12-05T15:10:08.303Z,94.07
2022-12-05T15:12:48.534Z,94.25
2022-12-05T15:15:41.944Z,94.93
2022-12-05T15:18:26.438Z,94.59
2022-12-05T15:21:02.800Z,94.00
2022-12-05T15:23:55.798Z,94.01
2022-12-05T15:29:28.324Z,93.87
2022-12-05T15:31:57.826Z,94.64
2022-12-05T15:34:47.515Z,93.42
2022-12-05T15:37:20.581Z,93.40
2022-12-05T15:42:42.675Z,93.03
2022-12-05T15:45:11.988Z,93.33
2022-12-05T15:47:39.348Z,92.77
2022-12-05T15:50:07.167Z,92.54
2022-12-05T15:52:41.895Z,92.48
2022-12-05T15:58:13.561Z,92.71
2022-12-05T16:00:45.531Z,92.12
2022-12-05T16:03:37.884Z,92.58
2022-12-05T16:06:13.715Z,92.16
2022-12-05T16:08:45.239Z,91.56
2022-12-05T16:11:13.724Z,90.84
2022-12-05T16:13:50.818Z,90.99
2022-12-05T16:16:21.026Z,91.54
2022-12-05T16:18:56.679Z,90.95
2022-12-05T16:21:37.847Z,91.49
2022-12-05T16:24:18.261Z,90.60
2022-12-05T16:27:14.688Z,91.32
2022-12-05T16:29:41.702Z,91.34
2022-12-05T16:32:21.911Z,91.62
2022-12-05T16:34:49.167Z,91.33
2022-12-05T16:37:41.862Z,91.06
2022-12-05T16:40:21.401Z,90.70
2022-12-05T16:43:01.881Z,91.17
2022-12-05T16:45:41.539Z,89.82
2022-12-05T16:48:21.419Z,89.38
2022-12-05T16:50:48.173Z,89.92
2022-12-05T16:53:34.980Z,90.22
2022-12-05T16:56:04.647Z,89.83
2022-12-05T16:58:31.596Z,89.34
2022-12-05T17:01:07.191Z,89.48
2022-12-05T17:03:35.622Z,90.43
2022-12-05T17:08:37.619Z,90.91
2022-12-05T17:11:07.648Z,91.25
2022-12-05T17:13:34.321Z,91.12
2022-12-05T17:16:01.060Z,89.88
2022-12-05T17:18:31.484Z,90.44
2022-12-05T17:21:01.275Z,91.26
2022-12-05T17:23:28.270Z,92.21
2022-12-05T17:25:56.988Z,91.03
2022-12-05T17:28:24.531Z,91.90
2022-12-05T17:30:51.731Z,91.71
2022-12-05T17:33:19.881Z,92.62
2022-12-05T17:35:47.279Z,92.19
2022-12-05T17:38:14.391Z,91.08
2022-12-05T17:40:41.392Z,90.81
2022-12-05T17:43:13.871Z,91.33
2022-12-05T17:45:41.311Z,91.67
2022-12-05T17:48:13.595Z,91.65
2022-12-05T17:50:46.782Z,90.02
2022-12-05T17:53:15.547Z,90.76
2022-12-05T17:55:43.239Z,90.72
2022-12-05T17:58:11.042Z,91.25
2022-12-05T18:00:37.993Z,91.48
2022-12-05T18:03:04.678Z,91.91
2022-12-05T18:05:31.268Z,91.83
2022-12-05T18:07:57.949Z,92.79
2022-12-05T18:10:24.783Z,92.63
2022-12-05T18:12:51.444Z,92.43
2022-12-05T18:15:18.047Z,91.57
2022-12-05T18:17:44.958Z,92.06
2022-12-05T18:20:14.276Z,92.09
2022-12-05T18:22:41.243Z,93.00
2022-12-05T18:25:08.995Z,92.70
2022-12-05T18:27:36.074Z,92.99
2022-12-05T18:30:04.178Z,92.99
2022-12-05T18:32:30.904Z,91.13
2022-12-05T18:34:59.027Z,91.82
2022-12-05T18:37:28.170Z,91.46
2022-12-05T18:39:56.550Z,89.96
2022-12-05T18:42:23.593Z,89.48
2022-12-05T18:44:52.778Z,90.38
2022-12-05T18:47:20.295Z,89.34
2022-12-05T18:49:47.004Z,89.62
2022-12-05T18:55:15.585Z,88.92
2022-12-05T18:57:41.876Z,88.34
2022-12-05T19:00:09.351Z,88.93
2022-12-05T19:02:35.938Z,88.92
2022-12-05T19:05:02.691Z,89.22
2022-12-05T19:07:29.278Z,88.93
2022-12-05T19:09:55.829Z,89.01
2022-12-05T19:12:22.434Z,88.80
2022-12-05T19:14:49.018Z,89.30
2022-12-05T19:17:15.604Z,88.69
2022-12-05T19:19:42.112Z,89.58
2022-12-05T19:22:08.740Z,88.94
2022-12-05T19:24:36.953Z,89.24
2022-12-05T19:27:03.938Z,88.98
2022-12-05T19:29:30.480Z,89.17
2022-12-05T19:31:57.070Z,88.95
2022-12-05T19:34:24.448Z,88.68
2022-12-05T19:36:51.266Z,89.62
2022-12-05T19:39:26.774Z,89.67
2022-12-05T19:41:55.216Z,89.43
2022-12-05T19:44:21.757Z,89.74
2022-12-05T19:46:49.319Z,89.77
2022-12-05T19:49:17.518Z,89.82
2022-12-05T19:51:44.721Z,89.37
2022-12-05T19:54:13.594Z,89.82
2022-12-05T19:56:40.273Z,89.85
2022-12-05T19:59:07.329Z,90.22
2022-12-05T20:01:40.317Z,89.67
2022-12-05T20:04:09.742Z,89.31
2022-12-05T20:06:42.273Z,89.86
2022-12-05T20:09:10.714Z,88.80
2022-12-05T20:11:42.109Z,88.05
2022-12-05T20:14:10.854Z,88.60
2022-12-05T20:16:37.867Z,88.69
2022-12-05T20:19:05.147Z,88.27
2022-12-05T20:21:34.552Z,88.36
2022-12-05T20:24:02.796Z,87.70
2022-12-05T20:26:41.280Z,87.94
2022-12-05T20:29:08.566Z,87.96
2022-12-05T20:31:41.096Z,88.45
2022-12-05T20:34:10.390Z,88.62
2022-12-05T20:36:37.189Z,88.51
2022-12-05T20:39:08.025Z,88.30
2022-12-05T20:41:35.116Z,88.36
2022-12-05T20:44:04.384Z,88.73
2022-12-05T20:46:32.219Z,88.69
2022-12-05T20:48:59.616Z,88.60
2022-12-05T20:51:31.668Z,89.47
2022-12-05T20:54:00.765Z,89.10
2022-12-05T20:56:32.621Z,88.90
2022-12-05T20:59:01.695Z,88.86
2022-12-05T21:01:30.530Z,88.86
2022-12-05T21:03:57.634Z,88.93
2022-12-05T21:06:30.469Z,89.25
2022-12-05T21:08:58.558Z,89.13
2022-12-05T21:11:25.939Z,89.81
2022-12-05T21:13:55.297Z,90.00
2022-12-05T21:16:25.821Z,88.94
2022-12-05T21:18:52.992Z,89.53
2022-12-05T21:21:21.827Z,89.38
2022-12-05T21:24:02.907Z,89.63
2022-12-05T21:26:31.241Z,88.98
2022-12-05T21:28:59.051Z,89.29
2022-12-05T21:31:31.264Z,88.63
2022-12-05T21:34:00.338Z,89.15
2022-12-05T21:36:29.714Z,89.43
2022-12-05T21:38:56.770Z,88.22
2022-12-05T21:41:27.089Z,88.53
2022-12-05T21:43:55.657Z,88.18
2022-12-05T21:46:23.863Z,88.45
2022-12-05T21:48:50.587Z,88.59
2022-12-05T21:51:17.350Z,88.23
2022-12-05T21:53:44.029Z,88.98
2022-12-05T21:56:16.989Z,89.29
2022-12-05T21:58:45.519Z,89.24
2022-12-05T22:01:17.492Z,89.45
2022-12-05T22:03:44.240Z,89.39
2022-12-05T22:06:12.541Z,89.82
2022-12-05T22:08:39.396Z,89.42
2022-12-05T22:11:08.002Z,89.31
2022-12-05T22:13:34.988Z,89.96
2022-12-05T22:16:02.866Z,90.06
2022-12-05T22:18:30.315Z,90.09
2022-12-05T22:21:08.734Z,90.63
2022-12-05T22:23:35.586Z,90.32
2022-12-05T22:26:07.994Z,90.49
2022-12-05T22:28:35.723Z,90.20
2022-12-05T22:31:04.887Z,91.24
2022-12-05T22:33:32.099Z,90.84
2022-12-05T22:36:00.593Z,90.65
2022-12-05T22:38:35.951Z,91.14
2022-12-05T22:41:05.592Z,91.72
2022-12-05T22:43:33.995Z,90.86
2022-12-05T22:46:09.133Z,90.86
2022-12-05T22:48:36.389Z,90.97
2022-12-05T22:51:03.960Z,91.06
2022-12-05T22:53:31.151Z,91.07
2022-12-05T22:56:06.092Z,91.30
2022-12-05T22:58:33.033Z,90.83
2022-12-05T23:01:20.654Z,91.10
2022-12-05T23:03:49.462Z,90.85
2022-12-05T23:06:17.774Z,90.36
2022-12-05T23:08:47.825Z,90.73
2022-12-05T23:11:16.357Z,90.73
2022-12-05T23:13:43.540Z,90.42
2022-12-05T23:16:16.271Z,90.21
2022-12-05T23:18:49.386Z,89.85
2022-12-05T23:21:24.749Z,90.38
2022-12-05T23:23:54.491Z,89.92
2022-12-05T23:26:23.029Z,89.99
2022-12-05T23:28:49.637Z,90.40
2022-12-05T23:31:16.848Z,90.12
2022-12-05T23:33:43.745Z,89.91
2022-12-05T23:36:11.003Z,89.63
2022-12-05T23:38:39.565Z,89.67
2022-12-05T23:41:07.659Z,88.71
2022-12-05T23:43:35.832Z,88.74
2022-12-05T23:46:03.924Z,89.80
2022-12-05T23:48:30.469Z,89.83
2022-12-05T23:51:03.536Z,89.92
2022-12-05T23:53:31.907Z,89.80
2022-12-05T23:56:10.439Z,89.56
2022-12-05T23:58:37.475Z,89.84
